createdAt,value
2019-02-10T00:00:45.601Z,9.28
2019-02-10T00:01:45.581Z,9.24
2019-02-10T00:02:45.057Z,9.2
2019-02-10T00:03:45.707Z,9.18
2019-02-10T00:04:45.271Z,9.24
2019-02-10T00:05:45.257Z,9.21
2019-02-10T00:06:45.229Z,9.21
2019-02-10T00:07:45.468Z,9.25
2019-02-10T00:08:45.203Z,9.18
2019-02-10T00:09:45.428Z,9.16
2019-02-10T00:10:45.172Z,9.15
2019-02-10T00:11:45.401Z,9.13
2019-02-10T00:12:45.380Z,9.21
2019-02-10T00:13:45.355Z,9.2
2019-02-10T00:14:45.331Z,9.2
2019-02-10T00:15:44.808Z,9.2
2019-02-10T00:16:45.090Z,9.21
2019-02-10T00:17:44.771Z,9.13
2019-02-10T00:18:45.001Z,9.12
2019-02-10T00:19:44.986Z,9.24
2019-02-10T00:20:45.021Z,9.24
2019-02-10T00:21:44.947Z,9.28
2019-02-10T00:22:44.671Z,9.2
2019-02-10T00:23:44.673Z,9.18
2019-02-10T00:24:45.143Z,9.15
2019-02-10T00:25:44.874Z,9.18
2019-02-10T00:26:44.848Z,9.2
2019-02-10T00:27:45.040Z,9.13
2019-02-10T00:28:45.061Z,9.1
2019-02-10T00:29:44.791Z,9.1
2019-02-10T00:30:44.768Z,9.09
2019-02-10T00:31:45.053Z,9.09
2019-02-10T00:32:45.027Z,9.09
2019-02-10T00:33:44.717Z,9.09
2019-02-10T00:34:44.700Z,9.1
2019-02-10T00:35:44.934Z,9.12
2019-02-10T00:36:45.014Z,9.12
2019-02-10T00:37:44.900Z,9.06
2019-02-10T00:38:44.886Z,9.01
2019-02-10T00:39:44.846Z,9.02
2019-02-10T00:40:44.835Z,9.06
2019-02-10T00:41:44.568Z,9.05
2019-02-10T00:42:44.537Z,9.09
2019-02-10T00:43:44.823Z,9.06
2019-02-10T00:44:44.755Z,9.16
2019-02-10T00:45:44.741Z,9.12
2019-02-10T00:46:44.722Z,9.13
2019-02-10T00:47:44.719Z,9.16
2019-02-10T00:48:44.470Z,9.1
2019-02-10T00:49:44.671Z,9.2
2019-02-10T00:50:44.654Z,9.15
2019-02-10T00:51:44.370Z,9.15
2019-02-10T00:52:44.101Z,9.12
2019-02-10T00:53:44.639Z,9.15
2019-02-10T00:54:44.309Z,9.25
2019-02-10T00:55:44.302Z,9.15
2019-02-10T00:56:44.390Z,9.21
2019-02-10T00:57:44.532Z,9.15
2019-02-10T00:58:44.496Z,9.23
2019-02-10T00:59:44.218Z,9.2
2019-02-10T01:00:44.456Z,9.13
2019-02-10T01:01:44.176Z,9.18
2019-02-10T01:02:43.920Z,9.16
2019-02-10T01:03:44.163Z,9.2
2019-02-10T01:04:44.125Z,9.15
2019-02-10T01:05:44.356Z,9.21
2019-02-10T01:06:46.241Z,9.18
2019-02-10T01:07:44.076Z,9.25
2019-02-10T01:08:44.070Z,9.21
2019-02-10T01:09:44.035Z,9.18
2019-02-10T01:10:43.766Z,9.34
2019-02-10T01:11:44.766Z,9.34
2019-02-10T01:12:43.962Z,9.3
2019-02-10T01:13:43.948Z,9.28
2019-02-10T01:14:43.933Z,9.27
2019-02-10T01:15:44.172Z,9.25
2019-02-10T01:16:44.139Z,9.23
2019-02-10T01:17:44.159Z,9.3
2019-02-10T01:18:43.598Z,9.3
2019-02-10T01:19:43.832Z,9.28
2019-02-10T01:20:43.808Z,9.27
2019-02-10T01:21:44.058Z,9.34
2019-02-10T01:22:43.772Z,9.27
2019-02-10T01:23:44.027Z,9.28
2019-02-10T01:24:43.971Z,9.28
2019-02-10T01:25:43.485Z,9.32
2019-02-10T01:26:43.700Z,9.25
2019-02-10T01:27:43.933Z,9.27
2019-02-10T01:28:43.929Z,9.34
2019-02-10T01:29:43.644Z,9.34
2019-02-10T01:30:43.875Z,9.32
2019-02-10T01:31:43.613Z,9.34
2019-02-10T01:32:43.579Z,9.28
2019-02-10T01:33:43.816Z,9.3
2019-02-10T01:34:43.539Z,9.28
2019-02-10T01:35:43.522Z,9.34
2019-02-10T01:36:51.783Z,9.35
2019-02-10T01:37:43.761Z,9.32
2019-02-10T01:38:43.488Z,9.27
2019-02-10T01:39:43.708Z,9.32
2019-02-10T01:40:43.433Z,9.27
2019-02-10T01:41:43.427Z,9.31
2019-02-10T01:42:43.657Z,9.35
2019-02-10T01:43:43.376Z,9.28
2019-02-10T01:44:43.609Z,9.32
2019-02-10T01:45:43.332Z,9.28
2019-02-10T01:46:43.565Z,9.24
2019-02-10T01:47:43.306Z,9.3
2019-02-10T01:48:43.278Z,9.3
2019-02-10T01:49:43.256Z,9.31
2019-02-10T01:50:43.232Z,9.32
2019-02-10T01:51:43.215Z,9.23
2019-02-10T01:52:43.203Z,9.28
2019-02-10T01:53:43.180Z,9.35
2019-02-10T01:54:43.417Z,9.39
2019-02-10T01:55:43.394Z,9.42
2019-02-10T01:56:43.380Z,9.45
2019-02-10T01:57:43.364Z,9.38
2019-02-10T01:58:43.086Z,9.28
2019-02-10T01:59:43.061Z,9.34
2019-02-10T02:00:43.303Z,9.39
2019-02-10T02:01:43.043Z,9.38
2019-02-10T02:02:43.012Z,9.3
2019-02-10T02:03:42.986Z,9.25
2019-02-10T02:04:42.976Z,9.28
2019-02-10T02:05:42.698Z,9.39
2019-02-10T02:06:43.191Z,9.31
2019-02-10T02:07:43.188Z,9.39
2019-02-10T02:08:42.931Z,9.38
2019-02-10T02:09:43.148Z,9.43
2019-02-10T02:10:42.599Z,9.42
2019-02-10T02:11:43.115Z,9.34
2019-02-10T02:12:43.076Z,9.27
2019-02-10T02:13:43.073Z,9.27
2019-02-10T02:14:43.029Z,9.32
2019-02-10T02:15:42.775Z,9.25
2019-02-10T02:16:42.746Z,9.27
2019-02-10T02:17:42.982Z,9.34
2019-02-10T02:18:42.712Z,9.34
2019-02-10T02:19:42.945Z,9.31
2019-02-10T02:20:42.672Z,9.3
2019-02-10T02:21:42.649Z,9.16
2019-02-10T02:22:42.882Z,9.24
2019-02-10T02:23:42.608Z,9.13
2019-02-10T02:24:42.846Z,9.16
2019-02-10T02:25:42.315Z,9.06
2019-02-10T02:26:42.833Z,9.16
2019-02-10T02:27:42.540Z,9.05
2019-02-10T02:28:42.509Z,9.1
2019-02-10T02:29:42.753Z,8.93
2019-02-10T02:30:42.221Z,8.94
2019-02-10T02:31:42.721Z,8.91
2019-02-10T02:32:42.544Z,8.88
2019-02-10T02:33:42.425Z,8.91
2019-02-10T02:34:42.652Z,8.79
2019-02-10T02:35:42.673Z,8.76
2019-02-10T02:36:42.621Z,8.71
2019-02-10T02:37:42.346Z,8.78
2019-02-10T02:38:42.418Z,8.73
2019-02-10T02:39:42.303Z,8.57
2019-02-10T02:40:42.269Z,8.63
2019-02-10T02:41:42.257Z,8.66
2019-02-10T02:42:42.239Z,8.63
2019-02-10T02:43:42.471Z,8.54
2019-02-10T02:44:42.508Z,8.53
2019-02-10T02:45:42.447Z,8.4
2019-02-10T02:46:42.429Z,8.39
2019-02-10T02:47:42.407Z,8.35
2019-02-10T02:48:42.380Z,8.42
2019-02-10T02:49:42.387Z,8.35
2019-02-10T02:50:42.363Z,8.29
2019-02-10T02:51:41.816Z,8.32
2019-02-10T02:52:42.077Z,8.25
2019-02-10T02:53:42.025Z,8.21
2019-02-10T02:54:42.003Z,8.28
2019-02-10T02:55:42.375Z,8.17
2019-02-10T02:56:41.967Z,8.12
2019-02-10T02:57:42.200Z,8.21
2019-02-10T02:58:41.715Z,8.15
2019-02-10T02:59:41.912Z,8.18
2019-02-10T03:00:42.171Z,8.08
2019-02-10T03:01:41.861Z,8.15
2019-02-10T03:02:42.099Z,8.15
2019-02-10T03:03:41.723Z,8.11
2019-02-10T03:04:41.804Z,8.12
2019-02-10T03:05:42.044Z,8.1
2019-02-10T03:06:42.022Z,8.04
2019-02-10T03:07:41.757Z,8.07
2019-02-10T03:08:41.978Z,8.04
2019-02-10T03:09:41.719Z,8.08
2019-02-10T03:10:41.435Z,7.99
2019-02-10T03:11:41.669Z,8.04
2019-02-10T03:12:41.909Z,8.02
2019-02-10T03:13:41.888Z,8.02
2019-02-10T03:14:41.864Z,8.02
2019-02-10T03:15:41.337Z,8.02
2019-02-10T03:16:41.585Z,8.03
2019-02-10T03:17:41.898Z,8
2019-02-10T03:18:42.038Z,8.03
2019-02-10T03:19:41.534Z,8.03
2019-02-10T03:20:41.486Z,7.99
2019-02-10T03:21:41.469Z,7.99
2019-02-10T03:22:41.706Z,7.9
2019-02-10T03:23:41.172Z,7.96
2019-02-10T03:24:41.892Z,7.92
2019-02-10T03:25:41.396Z,7.89
2019-02-10T03:26:41.382Z,7.94
2019-02-10T03:27:41.596Z,7.85
2019-02-10T03:28:41.581Z,7.84
2019-02-10T03:29:41.616Z,7.82
2019-02-10T03:30:41.045Z,7.9
2019-02-10T03:31:41.314Z,7.81
2019-02-10T03:32:41.287Z,7.89
2019-02-10T03:33:41.198Z,7.84
2019-02-10T03:34:41.476Z,7.87
2019-02-10T03:35:41.183Z,7.84
2019-02-10T03:36:41.166Z,7.81
2019-02-10T03:37:41.426Z,7.9
2019-02-10T03:38:41.140Z,7.82
2019-02-10T03:39:41.365Z,7.79
2019-02-10T03:40:41.343Z,7.72
2019-02-10T03:41:41.069Z,7.78
2019-02-10T03:42:41.307Z,7.81
2019-02-10T03:43:41.027Z,7.69
2019-02-10T03:44:41.290Z,7.75
2019-02-10T03:45:40.991Z,7.71
2019-02-10T03:46:41.224Z,7.82
2019-02-10T03:47:41.204Z,7.78
2019-02-10T03:48:40.926Z,7.72
2019-02-10T03:49:41.167Z,7.79
2019-02-10T03:50:40.903Z,7.71
2019-02-10T03:51:40.974Z,7.67
2019-02-10T03:52:40.852Z,7.69
2019-02-10T03:53:40.827Z,7.67
2019-02-10T03:54:40.834Z,7.67
2019-02-10T03:55:40.790Z,7.67
2019-02-10T03:56:40.765Z,7.62
2019-02-10T03:57:41.000Z,7.63
2019-02-10T03:58:40.761Z,7.69
2019-02-10T03:59:40.452Z,7.63
2019-02-10T04:00:40.702Z,7.66
2019-02-10T04:01:40.919Z,7.6
2019-02-10T04:02:40.390Z,7.55
2019-02-10T04:03:40.879Z,7.47
2019-02-10T04:04:40.854Z,7.59
2019-02-10T04:05:40.830Z,7.55
2019-02-10T04:06:40.567Z,7.53
2019-02-10T04:07:41.152Z,7.55
2019-02-10T04:08:40.268Z,7.55
2019-02-10T04:09:40.498Z,7.44
2019-02-10T04:10:40.755Z,7.52
2019-02-10T04:11:40.707Z,7.53
2019-02-10T04:12:40.704Z,7.58
2019-02-10T04:13:40.419Z,7.49
2019-02-10T04:14:40.403Z,7.45
2019-02-10T04:15:40.121Z,7.44
2019-02-10T04:16:40.658Z,7.53
2019-02-10T04:17:40.597Z,7.41
2019-02-10T04:18:40.324Z,7.47
2019-02-10T04:19:40.038Z,7.41
2019-02-10T04:20:40.538Z,7.41
2019-02-10T04:21:40.273Z,7.45
2019-02-10T04:22:40.580Z,7.41
2019-02-10T04:23:40.471Z,7.42
2019-02-10T04:24:40.201Z,7.44
2019-02-10T04:25:40.436Z,7.42
2019-02-10T04:26:40.415Z,7.38
2019-02-10T04:27:40.132Z,7.31
2019-02-10T04:28:40.112Z,7.35
2019-02-10T04:29:40.353Z,7.32
2019-02-10T04:30:40.095Z,7.37
2019-02-10T04:31:40.049Z,7.32
2019-02-10T04:32:40.296Z,7.34
2019-02-10T04:33:40.281Z,7.29
2019-02-10T04:34:40.327Z,7.34
2019-02-10T04:35:39.737Z,7.32
2019-02-10T04:36:39.963Z,7.29
2019-02-10T04:37:48.236Z,7.27
2019-02-10T04:38:40.163Z,7.27
2019-02-10T04:39:39.889Z,7.24
2019-02-10T04:40:39.633Z,7.32
2019-02-10T04:41:39.876Z,7.26
2019-02-10T04:42:39.831Z,7.34
2019-02-10T04:43:39.901Z,7.27
2019-02-10T04:44:39.556Z,7.32
2019-02-10T04:45:40.019Z,7.32
2019-02-10T04:46:39.750Z,7.29
2019-02-10T04:47:40.004Z,7.26
2019-02-10T04:48:39.707Z,7.32
2019-02-10T04:49:39.683Z,7.27
2019-02-10T04:50:39.665Z,7.27
2019-02-10T04:51:39.396Z,7.24
2019-02-10T04:52:39.979Z,7.31
2019-02-10T04:53:39.344Z,7.24
2019-02-10T04:54:39.837Z,7.22
2019-02-10T04:55:39.305Z,7.23
2019-02-10T04:56:39.871Z,7.2
2019-02-10T04:57:39.526Z,7.26
2019-02-10T04:58:39.513Z,7.23
2019-02-10T04:59:39.742Z,7.31
2019-02-10T05:00:39.717Z,7.29
2019-02-10T05:01:39.292Z,7.31
2019-02-10T05:02:39.431Z,7.2
2019-02-10T05:03:39.405Z,7.27
2019-02-10T05:04:39.386Z,7.24
2019-02-10T05:05:39.612Z,7.2
2019-02-10T05:06:39.077Z,7.31
2019-02-10T05:07:39.319Z,7.29
2019-02-10T05:08:39.552Z,7.27
2019-02-10T05:09:39.294Z,7.26
2019-02-10T05:10:39.264Z,7.26
2019-02-10T05:11:39.240Z,7.2
2019-02-10T05:12:39.469Z,7.22
2019-02-10T05:13:39.450Z,7.26
2019-02-10T05:14:39.190Z,7.24
2019-02-10T05:15:39.156Z,7.24
2019-02-10T05:16:39.427Z,7.27
2019-02-10T05:17:39.366Z,7.31
2019-02-10T05:18:39.347Z,7.32
2019-02-10T05:19:38.826Z,7.34
2019-02-10T05:20:39.056Z,7.31
2019-02-10T05:21:39.032Z,7.29
2019-02-10T05:22:39.485Z,7.29
2019-02-10T05:23:38.988Z,7.29
2019-02-10T05:24:39.163Z,7.35
2019-02-10T05:25:38.942Z,7.35
2019-02-10T05:26:38.975Z,7.31
2019-02-10T05:27:38.912Z,7.31
2019-02-10T05:28:39.146Z,7.34
2019-02-10T05:29:39.123Z,7.32
2019-02-10T05:30:38.847Z,7.29
2019-02-10T05:31:39.084Z,7.34
2019-02-10T05:32:38.821Z,7.27
2019-02-10T05:33:39.048Z,7.32
2019-02-10T05:34:38.761Z,7.42
2019-02-10T05:35:38.745Z,7.37
2019-02-10T05:36:38.907Z,7.35
2019-02-10T05:37:38.959Z,7.38
2019-02-10T05:38:38.996Z,7.4
2019-02-10T05:39:38.937Z,7.53
2019-02-10T05:40:38.635Z,7.42
2019-02-10T05:41:38.991Z,7.44
2019-02-10T05:42:38.873Z,7.4
2019-02-10T05:43:38.583Z,7.45
2019-02-10T05:44:38.819Z,7.45
2019-02-10T05:45:38.293Z,7.45
2019-02-10T05:46:38.530Z,7.45
2019-02-10T05:47:38.517Z,7.47
2019-02-10T05:48:38.755Z,7.44
2019-02-10T05:49:38.753Z,7.55
2019-02-10T05:50:38.710Z,7.41
2019-02-10T05:51:38.158Z,7.55
2019-02-10T05:52:38.396Z,7.58
2019-02-10T05:53:38.699Z,7.58
2019-02-10T05:54:40.630Z,7.53
2019-02-10T05:55:38.340Z,7.58
2019-02-10T05:56:38.595Z,7.56
2019-02-10T05:57:38.305Z,7.66
2019-02-10T05:58:38.024Z,7.63
2019-02-10T05:59:38.520Z,7.6
2019-02-10T06:00:38.022Z,7.66
2019-02-10T06:01:38.212Z,7.55
2019-02-10T06:02:38.206Z,7.6
2019-02-10T06:03:37.922Z,7.63
2019-02-10T06:04:38.406Z,7.66
2019-02-10T06:05:38.409Z,7.77
2019-02-10T06:06:38.381Z,7.71
2019-02-10T06:07:38.354Z,7.74
2019-02-10T06:08:38.071Z,7.72
2019-02-10T06:09:38.071Z,7.63
2019-02-10T06:10:38.027Z,7.72
2019-02-10T06:11:38.266Z,7.74
2019-02-10T06:12:38.000Z,7.74
2019-02-10T06:13:37.978Z,7.69
2019-02-10T06:14:37.946Z,7.72
2019-02-10T06:15:38.233Z,7.77
2019-02-10T06:16:37.923Z,7.84
2019-02-10T06:17:37.638Z,7.74
2019-02-10T06:18:37.626Z,7.79
2019-02-10T06:19:37.615Z,7.85
2019-02-10T06:20:37.824Z,7.81
2019-02-10T06:21:38.065Z,7.79
2019-02-10T06:22:38.037Z,7.87
2019-02-10T06:23:37.564Z,7.89
2019-02-10T06:24:37.999Z,7.84
2019-02-10T06:25:37.720Z,7.96
2019-02-10T06:26:37.951Z,7.9
2019-02-10T06:27:37.427Z,7.85
2019-02-10T06:28:37.664Z,7.87
2019-02-10T06:29:37.643Z,7.96
2019-02-10T06:30:37.616Z,7.85
2019-02-10T06:31:37.594Z,7.94
2019-02-10T06:32:37.590Z,7.93
2019-02-10T06:33:37.563Z,8.02
2019-02-10T06:34:37.534Z,8
2019-02-10T06:35:37.771Z,8
2019-02-10T06:36:37.759Z,8.02
2019-02-10T06:37:37.482Z,8
2019-02-10T06:38:37.712Z,7.99
2019-02-10T06:39:37.709Z,8.04
2019-02-10T06:40:37.678Z,8.02
2019-02-10T06:41:37.141Z,8.04
2019-02-10T06:42:37.470Z,8.04
2019-02-10T06:43:37.613Z,8.07
2019-02-10T06:44:37.588Z,8.04
2019-02-10T06:45:37.597Z,8.1
2019-02-10T06:46:37.290Z,8.14
2019-02-10T06:47:37.321Z,8.07
2019-02-10T06:48:36.996Z,8.03
2019-02-10T06:49:37.506Z,8.11
2019-02-10T06:50:36.954Z,8.14
2019-02-10T06:51:36.953Z,8.11
2019-02-10T06:52:37.422Z,8.25
2019-02-10T06:53:37.148Z,8.15
2019-02-10T06:54:36.877Z,8.15
2019-02-10T06:55:37.110Z,8.18
2019-02-10T06:56:37.346Z,8.18
2019-02-10T06:57:37.328Z,8.21
2019-02-10T06:58:37.299Z,8.33
2019-02-10T06:59:37.050Z,8.22
2019-02-10T07:00:37.269Z,8.33
2019-02-10T07:01:37.242Z,8.3
2019-02-10T07:02:36.971Z,8.35
2019-02-10T07:03:36.948Z,8.39
2019-02-10T07:04:36.928Z,8.29
2019-02-10T07:05:36.681Z,8.36
2019-02-10T07:06:37.144Z,8.32
2019-02-10T07:07:36.616Z,8.32
2019-02-10T07:08:36.838Z,8.35
2019-02-10T07:09:36.823Z,8.35
2019-02-10T07:10:37.057Z,8.4
2019-02-10T07:11:37.061Z,8.42
2019-02-10T07:12:36.767Z,8.47
2019-02-10T07:13:36.751Z,8.47
2019-02-10T07:14:37.037Z,8.51
2019-02-10T07:15:36.708Z,8.55
2019-02-10T07:16:36.943Z,8.54
2019-02-10T07:17:36.706Z,8.53
2019-02-10T07:18:36.676Z,8.58
2019-02-10T07:19:36.626Z,8.53
2019-02-10T07:20:36.892Z,8.53
2019-02-10T07:21:36.329Z,8.57
2019-02-10T07:22:36.569Z,8.57
2019-02-10T07:23:36.816Z,8.57
2019-02-10T07:24:36.936Z,8.58
2019-02-10T07:25:36.294Z,8.63
2019-02-10T07:26:36.741Z,8.58
2019-02-10T07:27:36.464Z,8.62
2019-02-10T07:28:36.449Z,8.68
2019-02-10T07:29:36.432Z,8.62
2019-02-10T07:30:36.144Z,8.63
2019-02-10T07:31:36.637Z,8.66
2019-02-10T07:32:36.626Z,8.6
2019-02-10T07:33:36.598Z,8.55
2019-02-10T07:34:36.692Z,8.58
2019-02-10T07:35:36.566Z,8.6
2019-02-10T07:36:36.539Z,8.6
2019-02-10T07:37:36.518Z,8.63
2019-02-10T07:38:43.488Z,8.68
2019-02-10T07:39:36.278Z,8.57
2019-02-10T07:40:35.952Z,8.75
2019-02-10T07:41:36.444Z,8.69
2019-02-10T07:42:36.419Z,8.71
2019-02-10T07:43:36.409Z,8.69
2019-02-10T07:44:35.870Z,8.78
2019-02-10T07:45:36.109Z,8.78
2019-02-10T07:46:36.085Z,8.72
2019-02-10T07:47:36.061Z,8.72
2019-02-10T07:48:36.045Z,8.78
2019-02-10T07:49:36.282Z,8.76
2019-02-10T07:50:35.846Z,8.87
2019-02-10T07:51:35.997Z,8.9
2019-02-10T07:52:35.979Z,8.81
2019-02-10T07:53:35.695Z,8.91
2019-02-10T07:54:44.257Z,8.84
2019-02-10T07:55:36.192Z,8.86
2019-02-10T07:56:35.882Z,8.84
2019-02-10T07:57:35.871Z,8.78
2019-02-10T07:58:35.725Z,8.84
2019-02-10T07:59:35.577Z,8.83
2019-02-10T08:00:37.491Z,8.84
2019-02-10T08:01:35.784Z,8.79
2019-02-10T08:02:35.509Z,8.86
2019-02-10T08:03:36.113Z,8.94
2019-02-10T08:04:35.744Z,8.91
2019-02-10T08:05:35.708Z,8.94
2019-02-10T08:06:35.940Z,8.94
2019-02-10T08:07:35.684Z,8.96
2019-02-10T08:08:35.658Z,8.97
2019-02-10T08:09:35.899Z,8.94
2019-02-10T08:10:35.903Z,9.01
2019-02-10T08:11:35.730Z,8.94
2019-02-10T08:12:35.835Z,8.91
2019-02-10T08:13:35.806Z,8.94
2019-02-10T08:14:35.789Z,9.02
2019-02-10T08:15:35.508Z,9.09
2019-02-10T08:16:35.749Z,9.09
2019-02-10T08:17:35.467Z,8.97
2019-02-10T08:18:35.706Z,9.05
2019-02-10T08:19:35.681Z,9.18
2019-02-10T08:20:35.755Z,9.2
2019-02-10T08:21:35.152Z,9.15
2019-02-10T08:22:35.622Z,9.12
2019-02-10T08:23:35.358Z,9.2
2019-02-10T08:24:35.332Z,9.13
2019-02-10T08:25:35.338Z,9.15
2019-02-10T08:26:35.305Z,9.16
2019-02-10T08:27:35.294Z,9.15
2019-02-10T08:28:35.297Z,9.23
2019-02-10T08:29:35.254Z,9.25
2019-02-10T08:30:35.480Z,9.27
2019-02-10T08:31:35.463Z,9.25
2019-02-10T08:32:35.181Z,9.25
2019-02-10T08:33:35.408Z,9.31
2019-02-10T08:34:35.385Z,9.34
2019-02-10T08:35:35.385Z,9.27
2019-02-10T08:36:35.384Z,9.31
2019-02-10T08:37:35.096Z,9.28
2019-02-10T08:38:35.083Z,9.4
2019-02-10T08:39:35.044Z,9.38
2019-02-10T08:40:35.277Z,9.35
2019-02-10T08:41:35.316Z,9.35
2019-02-10T08:42:34.982Z,9.4
2019-02-10T08:43:35.224Z,9.43
2019-02-10T08:44:34.688Z,9.4
2019-02-10T08:45:35.196Z,9.43
2019-02-10T08:46:35.361Z,9.39
2019-02-10T08:47:38.759Z,9.43
2019-02-10T08:48:34.863Z,9.39
2019-02-10T08:49:35.105Z,9.46
2019-02-10T08:50:34.823Z,9.49
2019-02-10T08:51:35.064Z,9.42
2019-02-10T08:52:35.039Z,9.49
2019-02-10T08:53:34.771Z,9.43
2019-02-10T08:54:34.519Z,9.48
2019-02-10T08:55:34.978Z,9.57
2019-02-10T08:56:34.711Z,9.57
2019-02-10T08:57:34.966Z,9.52
2019-02-10T08:58:34.418Z,9.42
2019-02-10T08:59:34.904Z,9.6
2019-02-10T09:00:34.627Z,9.53
2019-02-10T09:01:34.398Z,9.58
2019-02-10T09:02:34.596Z,9.61
2019-02-10T09:03:34.851Z,9.64
2019-02-10T09:04:34.309Z,9.63
2019-02-10T09:05:34.560Z,9.56
2019-02-10T09:06:34.259Z,9.66
2019-02-10T09:07:34.496Z,9.61
2019-02-10T09:08:34.229Z,9.63
2019-02-10T09:09:34.204Z,9.66
2019-02-10T09:10:34.710Z,9.79
2019-02-10T09:11:34.177Z,9.73
2019-02-10T09:12:34.668Z,9.7
2019-02-10T09:13:34.644Z,9.67
2019-02-10T09:14:34.411Z,9.75
2019-02-10T09:15:34.343Z,9.7
2019-02-10T09:16:34.350Z,9.67
2019-02-10T09:17:34.309Z,9.73
2019-02-10T09:18:34.284Z,9.75
2019-02-10T09:19:34.325Z,9.83
2019-02-10T09:20:34.239Z,9.71
2019-02-10T09:21:34.476Z,9.76
2019-02-10T09:22:34.471Z,9.86
2019-02-10T09:23:34.245Z,9.94
2019-02-10T09:24:34.250Z,9.88
2019-02-10T09:25:34.358Z,9.94
2019-02-10T09:26:34.148Z,9.89
2019-02-10T09:27:34.114Z,9.89
2019-02-10T09:28:33.850Z,9.96
2019-02-10T09:29:34.386Z,10.03
2019-02-10T09:30:34.310Z,9.99
2019-02-10T09:31:35.697Z,10.04
2019-02-10T09:32:34.017Z,9.97
2019-02-10T09:33:34.257Z,10
2019-02-10T09:34:34.179Z,9.97
2019-02-10T09:35:33.965Z,10.01
2019-02-10T09:36:33.939Z,10.04
2019-02-10T09:37:34.384Z,10
2019-02-10T09:38:34.165Z,10.06
2019-02-10T09:39:33.679Z,10.06
2019-02-10T09:40:34.125Z,10.04
2019-02-10T09:41:34.103Z,10.18
2019-02-10T09:42:34.081Z,10.21
2019-02-10T09:43:34.093Z,10.17
2019-02-10T09:44:33.597Z,10.19
2019-02-10T09:45:34.026Z,10.14
2019-02-10T09:46:33.746Z,10.32
2019-02-10T09:47:33.993Z,10.26
2019-02-10T09:48:33.722Z,10.34
2019-02-10T09:49:33.956Z,10.25
2019-02-10T09:50:33.433Z,10.26
2019-02-10T09:51:33.662Z,10.34
2019-02-10T09:52:33.892Z,10.32
2019-02-10T09:53:33.365Z,10.3
2019-02-10T09:54:33.674Z,10.28
2019-02-10T09:55:33.595Z,10.34
2019-02-10T09:56:33.859Z,10.32
2019-02-10T09:57:33.581Z,10.28
2019-02-10T09:58:33.542Z,10.34
2019-02-10T09:59:33.255Z,10.37
2019-02-10T10:00:33.500Z,10.4
2019-02-10T10:01:33.737Z,10.42
2019-02-10T10:02:33.725Z,10.3
2019-02-10T10:03:33.429Z,10.36
2019-02-10T10:04:33.161Z,10.51
2019-02-10T10:05:33.646Z,10.46
2019-02-10T10:06:33.630Z,10.52
2019-02-10T10:07:33.358Z,10.4
2019-02-10T10:08:33.613Z,10.26
2019-02-10T10:09:33.633Z,10.28
2019-02-10T10:10:33.048Z,10.34
2019-02-10T10:11:33.547Z,10.36
2019-02-10T10:12:33.026Z,10.3
2019-02-10T10:13:33.247Z,10.25
2019-02-10T10:14:35.622Z,10.33
2019-02-10T10:15:33.468Z,10.28
2019-02-10T10:16:33.449Z,10.3
2019-02-10T10:17:33.178Z,10.3
2019-02-10T10:18:32.903Z,10.28
2019-02-10T10:19:33.134Z,10.19
2019-02-10T10:20:33.423Z,10.18
2019-02-10T10:21:32.836Z,10.21
2019-02-10T10:22:33.076Z,10.1
2019-02-10T10:23:33.336Z,10.12
2019-02-10T10:24:33.307Z,10.14
2019-02-10T10:25:33.287Z,10.21
2019-02-10T10:26:32.754Z,10.14
2019-02-10T10:27:33.006Z,10.15
2019-02-10T10:28:32.982Z,10.1
2019-02-10T10:29:33.201Z,10.03
2019-02-10T10:30:33.185Z,10.17
2019-02-10T10:31:33.174Z,10.09
2019-02-10T10:32:32.889Z,10.06
2019-02-10T10:33:34.468Z,10.03
2019-02-10T10:34:32.863Z,10.06
2019-02-10T10:35:33.186Z,10.06
2019-02-10T10:36:32.869Z,9.97
2019-02-10T10:37:32.800Z,10.04
2019-02-10T10:38:32.773Z,10.01
2019-02-10T10:39:33.025Z,10.01
2019-02-10T10:40:33.140Z,10.01
2019-02-10T10:41:32.965Z,10.01
2019-02-10T10:42:32.689Z,10.09
2019-02-10T10:43:32.698Z,10
2019-02-10T10:44:32.664Z,10.01
2019-02-10T10:45:32.635Z,10.01
2019-02-10T10:46:32.621Z,10.04
2019-02-10T10:47:32.871Z,9.96
2019-02-10T10:48:32.335Z,9.97
2019-02-10T10:49:32.558Z,9.97
2019-02-10T10:50:32.802Z,9.88
2019-02-10T10:51:32.529Z,9.93
2019-02-10T10:52:32.766Z,9.96
2019-02-10T10:53:32.488Z,10
2019-02-10T10:54:32.468Z,9.94
2019-02-10T10:55:32.509Z,9.85
2019-02-10T10:56:32.686Z,9.86
2019-02-10T10:57:32.410Z,9.88
2019-02-10T10:58:32.394Z,9.91
2019-02-10T10:59:32.665Z,9.82
2019-02-10T11:00:32.417Z,9.83
2019-02-10T11:01:32.328Z,9.89
2019-02-10T11:02:32.327Z,9.88
2019-02-10T11:03:32.045Z,9.85
2019-02-10T11:04:32.279Z,9.82
2019-02-10T11:05:32.006Z,9.78
2019-02-10T11:06:33.947Z,9.82
2019-02-10T11:07:32.226Z,9.78
2019-02-10T11:08:32.208Z,9.86
2019-02-10T11:09:41.665Z,9.85
2019-02-10T11:10:33.039Z,9.73
2019-02-10T11:11:32.142Z,9.83
2019-02-10T11:12:31.892Z,9.86
2019-02-10T11:13:32.366Z,9.93
2019-02-10T11:14:31.828Z,9.88
2019-02-10T11:15:32.332Z,9.83
2019-02-10T11:16:31.804Z,9.83
2019-02-10T11:17:32.028Z,9.94
2019-02-10T11:18:32.282Z,9.91
2019-02-10T11:19:32.008Z,9.88
2019-02-10T11:20:31.969Z,9.88
2019-02-10T11:21:32.388Z,9.97
2019-02-10T11:22:31.930Z,9.97
2019-02-10T11:23:31.917Z,9.91
2019-02-10T11:24:33.694Z,9.94
2019-02-10T11:25:32.358Z,9.96
2019-02-10T11:26:31.853Z,9.96
2019-02-10T11:27:31.835Z,9.94
2019-02-10T11:28:31.815Z,9.96
2019-02-10T11:29:31.806Z,9.93
2019-02-10T11:30:31.787Z,10
2019-02-10T11:31:32.032Z,9.99
2019-02-10T11:32:32.034Z,9.96
2019-02-10T11:33:31.726Z,10.01
2019-02-10T11:34:31.447Z,9.97
2019-02-10T11:35:31.965Z,10.03
2019-02-10T11:36:32.094Z,9.94
2019-02-10T11:37:33.566Z,10.04
2019-02-10T11:38:31.391Z,10
2019-02-10T11:39:31.890Z,10.03
2019-02-10T11:40:31.603Z,10.03
2019-02-10T11:41:31.625Z,10
2019-02-10T11:42:31.816Z,10
2019-02-10T11:43:31.549Z,10.04
2019-02-10T11:44:31.276Z,10.04
2019-02-10T11:45:31.521Z,10.1
2019-02-10T11:46:31.487Z,10.1
2019-02-10T11:47:31.729Z,10.09
2019-02-10T11:48:31.733Z,9.99
2019-02-10T11:49:31.915Z,10.07
2019-02-10T11:50:31.417Z,10
2019-02-10T11:51:31.411Z,10.07
2019-02-10T11:52:31.374Z,10.09
2019-02-10T11:53:31.600Z,10.03
2019-02-10T11:54:31.327Z,10.1
2019-02-10T11:55:31.561Z,10.19
2019-02-10T11:56:31.035Z,10.18
2019-02-10T11:57:31.270Z,10.15
2019-02-10T11:58:31.267Z,10.15
2019-02-10T11:59:31.242Z,10.24
2019-02-10T12:00:30.962Z,10.19
2019-02-10T12:01:31.199Z,10.21
2019-02-10T12:02:37.754Z,10.22
2019-02-10T12:03:31.160Z,10.24
2019-02-10T12:04:31.392Z,10.19
2019-02-10T12:05:31.126Z,10.19
2019-02-10T12:06:31.112Z,10.15
2019-02-10T12:07:31.339Z,10.15
2019-02-10T12:08:40.188Z,10.14
2019-02-10T12:09:31.054Z,10.21
2019-02-10T12:10:31.060Z,10.21
2019-02-10T12:11:31.270Z,10.25
2019-02-10T12:12:30.994Z,10.21
2019-02-10T12:13:30.970Z,10.18
2019-02-10T12:14:31.210Z,10.07
2019-02-10T12:15:31.187Z,10.15
2019-02-10T12:16:31.169Z,10
2019-02-10T12:17:31.152Z,10.01
2019-02-10T12:18:31.133Z,10.18
2019-02-10T12:19:30.859Z,10.04
2019-02-10T12:20:30.843Z,10.21
2019-02-10T12:21:31.075Z,10.19
2019-02-10T12:22:30.804Z,10.19
2019-02-10T12:23:31.063Z,10.21
2019-02-10T12:24:31.026Z,10.17
2019-02-10T12:25:30.501Z,10.21
2019-02-10T12:26:30.737Z,10.24
2019-02-10T12:27:30.715Z,10.18
2019-02-10T12:28:30.976Z,10.19
2019-02-10T12:29:30.933Z,10.21
2019-02-10T12:30:30.916Z,10.15
2019-02-10T12:31:30.903Z,10.22
2019-02-10T12:32:30.627Z,10.19
2019-02-10T12:33:30.918Z,10.1
2019-02-10T12:34:30.614Z,10
2019-02-10T12:35:30.840Z,10.04
2019-02-10T12:36:30.552Z,10.06
2019-02-10T12:37:37.267Z,10.09
2019-02-10T12:38:30.513Z,10.12
2019-02-10T12:39:30.746Z,10.01
2019-02-10T12:40:30.733Z,10
2019-02-10T12:41:30.458Z,10
2019-02-10T12:42:30.233Z,10
2019-02-10T12:43:30.412Z,9.91
2019-02-10T12:44:30.407Z,9.93
2019-02-10T12:45:30.633Z,9.94
2019-02-10T12:46:30.382Z,9.86
2019-02-10T12:47:30.593Z,9.89
2019-02-10T12:48:30.573Z,9.78
2019-02-10T12:49:30.303Z,9.82
2019-02-10T12:50:30.031Z,9.7
2019-02-10T12:51:30.312Z,9.75
2019-02-10T12:52:30.509Z,9.81
2019-02-10T12:53:30.227Z,9.83
2019-02-10T12:54:30.476Z,9.78
2019-02-10T12:55:31.691Z,9.81
2019-02-10T12:56:30.180Z,9.82
2019-02-10T12:57:30.207Z,9.82
2019-02-10T12:58:30.389Z,9.73
2019-02-10T12:59:30.115Z,9.68
2019-02-10T13:00:30.362Z,9.58
2019-02-10T13:01:30.084Z,9.4
2019-02-10T13:02:30.363Z,9.38
2019-02-10T13:03:29.795Z,9.28
2019-02-10T13:04:30.340Z,9.27
2019-02-10T13:05:30.005Z,9.27
2019-02-10T13:06:29.988Z,9.24
2019-02-10T13:07:30.231Z,9.23
2019-02-10T13:08:30.215Z,9.15
2019-02-10T13:09:29.670Z,9.16
2019-02-10T13:10:30.159Z,9.12
2019-02-10T13:11:29.629Z,9.09
2019-02-10T13:12:30.121Z,9.09
2019-02-10T13:13:30.099Z,9.1
2019-02-10T13:14:30.094Z,9.02
2019-02-10T13:15:31.565Z,8.97
2019-02-10T13:16:29.541Z,8.96
2019-02-10T13:17:29.768Z,8.94